createdAt,value
2019-01-28T00:01:41.238Z,45.77
2019-01-28T00:04:09.048Z,49.80
2019-01-28T00:06:36.770Z,48.17
2019-01-28T00:09:07.435Z,52.37
2019-01-28T00:11:35.118Z,52.27
2019-01-28T00:14:03.343Z,48.57
2019-01-28T00:16:31.103Z,45.30
2019-01-28T00:18:59.141Z,47.40
2019-01-28T00:21:26.872Z,48.77
2019-01-28T00:23:54.591Z,48.90
2019-01-28T00:26:22.277Z,49.57
2019-01-28T00:28:49.860Z,50.67
2019-01-28T00:31:17.852Z,49.47
2019-01-28T00:33:45.437Z,43.77
2019-01-28T00:36:13.234Z,45.13
2019-01-28T00:38:41.889Z,49.07
2019-01-28T00:41:09.535Z,49.97
2019-01-28T00:43:37.183Z,52.00
2019-01-28T00:46:07.756Z,53.23
2019-01-28T00:48:35.415Z,45.53
2019-01-28T00:51:03.156Z,49.67
2019-01-28T00:53:33.736Z,43.47
2019-01-28T00:56:01.312Z,48.20
2019-01-28T00:58:29.865Z,48.27
2019-01-28T01:00:57.521Z,47.40
2019-01-28T01:03:25.222Z,41.63
2019-01-28T01:05:52.760Z,48.57
2019-01-28T01:08:20.450Z,46.77
2019-01-28T01:10:48.171Z,45.70
2019-01-28T01:13:15.966Z,41.67
2019-01-28T01:15:43.573Z,46.90
2019-01-28T01:18:11.283Z,47.57
2019-01-28T01:20:38.868Z,46.27
2019-01-28T01:23:06.512Z,46.10
2019-01-28T01:25:34.060Z,44.43
2019-01-28T01:28:02.526Z,43.93
2019-01-28T01:30:31.116Z,44.40
2019-01-28T01:32:59.160Z,48.50
2019-01-28T01:35:26.752Z,47.47
2019-01-28T01:37:54.396Z,40.30
2019-01-28T01:40:23.056Z,41.70
2019-01-28T01:42:50.705Z,44.97
2019-01-28T01:45:18.404Z,41.83
2019-01-28T01:47:46.210Z,43.27
2019-01-28T01:50:13.917Z,43.63
2019-01-28T01:52:41.602Z,45.70
2019-01-28T01:55:11.038Z,45.13
2019-01-28T01:57:38.637Z,46.77
2019-01-28T02:00:13.775Z,46.23
2019-01-28T02:02:41.342Z,44.53
2019-01-28T02:05:09.424Z,46.23
2019-01-28T02:07:36.987Z,44.57
2019-01-28T02:10:05.747Z,46.30
2019-01-28T02:12:33.487Z,43.00
2019-01-28T02:15:01.226Z,44.33
2019-01-28T02:17:28.924Z,45.67
2019-01-28T02:19:56.573Z,44.93
2019-01-28T02:22:24.179Z,41.43
2019-01-28T02:24:51.854Z,43.67
2019-01-28T02:27:19.394Z,44.40
2019-01-28T02:29:47.133Z,39.27
2019-01-28T02:32:14.795Z,40.17
2019-01-28T02:34:42.444Z,42.33
2019-01-28T02:37:10.026Z,42.53
2019-01-28T02:39:37.743Z,43.93
2019-01-28T02:42:05.358Z,44.43
2019-01-28T02:44:33.053Z,40.03
2019-01-28T02:47:00.615Z,39.00
2019-01-28T02:49:28.258Z,40.47
2019-01-28T02:51:55.856Z,40.63
2019-01-28T02:54:23.558Z,38.90
2019-01-28T02:56:51.164Z,34.93
2019-01-28T02:59:18.866Z,33.87
2019-01-28T03:01:46.413Z,34.63
2019-01-28T03:04:14.067Z,36.37
2019-01-28T03:06:41.708Z,37.40
2019-01-28T03:09:09.359Z,37.33
2019-01-28T03:11:37.110Z,39.83
2019-01-28T03:14:04.954Z,38.73
2019-01-28T03:16:32.567Z,35.87
2019-01-28T03:19:00.347Z,38.60
2019-01-28T03:21:27.915Z,35.83
2019-01-28T03:23:55.638Z,32.87
2019-01-28T03:26:23.245Z,36.47
2019-01-28T03:28:50.888Z,36.40
2019-01-28T03:31:18.539Z,38.17
2019-01-28T03:33:46.193Z,42.93
2019-01-28T03:36:13.825Z,39.77
2019-01-28T03:38:41.540Z,42.17
2019-01-28T03:41:09.236Z,39.93
2019-01-28T03:43:36.870Z,43.27
2019-01-28T03:46:04.411Z,38.57
2019-01-28T03:48:32.092Z,40.00
2019-01-28T03:50:59.697Z,43.63
2019-01-28T03:53:27.527Z,43.13
2019-01-28T03:55:55.191Z,47.33
2019-01-28T03:58:22.933Z,42.03
2019-01-28T04:00:50.597Z,43.67
2019-01-28T04:03:19.222Z,40.10
2019-01-28T04:05:46.837Z,43.70
2019-01-28T04:08:14.572Z,45.40
2019-01-28T04:10:42.167Z,43.43
2019-01-28T04:13:09.823Z,49.13
2019-01-28T04:15:37.536Z,44.83
2019-01-28T04:18:05.169Z,44.57
2019-01-28T04:20:32.817Z,44.73
2019-01-28T04:23:01.137Z,41.93
2019-01-28T04:25:28.745Z,49.40
2019-01-28T04:27:56.402Z,43.13
2019-01-28T04:30:24.553Z,46.10
2019-01-28T04:32:52.229Z,41.57
2019-01-28T04:35:19.938Z,44.70
2019-01-28T04:37:47.602Z,41.07
2019-01-28T04:40:15.743Z,42.10
2019-01-28T04:42:43.391Z,46.37
2019-01-28T04:45:13.314Z,40.67
2019-01-28T04:47:41.107Z,42.87
2019-01-28T04:50:10.781Z,41.93
2019-01-28T04:52:38.457Z,43.43
2019-01-28T04:55:06.255Z,40.13
2019-01-28T04:57:34.038Z,43.87
2019-01-28T05:00:01.761Z,39.97
2019-01-28T05:02:29.596Z,44.83
2019-01-28T05:04:57.381Z,39.87
2019-01-28T05:07:25.090Z,44.67
2019-01-28T05:09:52.762Z,46.53
2019-01-28T05:12:20.560Z,37.97
2019-01-28T05:14:48.286Z,42.73
2019-01-28T05:17:16.068Z,40.47
2019-01-28T05:19:43.726Z,42.37
2019-01-28T05:22:11.402Z,42.03
2019-01-28T05:24:39.000Z,46.73
2019-01-28T05:27:06.772Z,45.93
2019-01-28T05:29:34.455Z,46.47
2019-01-28T05:32:02.161Z,50.13
2019-01-28T05:34:29.847Z,45.30
2019-01-28T05:36:57.534Z,44.13
2019-01-28T05:39:25.183Z,49.20
2019-01-28T05:41:52.812Z,45.07
2019-01-28T05:44:20.383Z,42.87
2019-01-28T05:46:48.016Z,45.27
2019-01-28T05:49:15.537Z,45.50
2019-01-28T05:51:43.220Z,47.77
2019-01-28T05:54:10.865Z,49.90
2019-01-28T05:56:38.610Z,42.33
2019-01-28T05:59:06.334Z,44.43
2019-01-28T06:01:33.918Z,39.23
2019-01-28T06:04:01.535Z,43.00
2019-01-28T06:06:29.212Z,43.37
2019-01-28T06:08:56.898Z,39.87
2019-01-28T06:11:24.494Z,46.97
2019-01-28T06:13:52.498Z,38.03
2019-01-28T06:16:20.090Z,40.33
2019-01-28T06:18:47.775Z,42.87
2019-01-28T06:21:15.344Z,39.60
2019-01-28T06:23:43.021Z,37.60
2019-01-28T06:26:10.579Z,34.97
2019-01-28T06:28:38.151Z,37.27
2019-01-28T06:31:05.796Z,35.57
2019-01-28T06:33:33.451Z,33.40
2019-01-28T06:36:01.724Z,36.17
2019-01-28T06:38:29.371Z,37.73
2019-01-28T06:40:57.025Z,34.63
2019-01-28T06:43:24.796Z,26.97
2019-01-28T06:45:55.319Z,23.33
2019-01-28T06:48:22.999Z,23.10
2019-01-28T06:50:50.599Z,20.17
2019-01-28T06:53:18.255Z,21.30
2019-01-28T06:55:45.911Z,18.67
2019-01-28T06:58:13.508Z,25.17
2019-01-28T07:00:41.169Z,30.77
2019-01-28T07:03:08.870Z,30.63
2019-01-28T07:05:36.549Z,27.90
2019-01-28T07:08:04.678Z,27.30
2019-01-28T07:10:32.432Z,27.70
2019-01-28T07:13:00.004Z,29.47
2019-01-28T07:15:27.634Z,23.90
2019-01-28T07:17:55.365Z,24.93
2019-01-28T07:20:25.950Z,39.10
2019-01-28T07:22:53.657Z,34.00
2019-01-28T07:25:21.437Z,38.60
2019-01-28T07:27:49.114Z,41.13
2019-01-28T07:30:29.469Z,39.73
2019-01-28T07:32:57.041Z,51.33
2019-01-28T07:35:25.083Z,43.67
2019-01-28T07:37:52.827Z,43.63
2019-01-28T07:40:20.605Z,52.10
2019-01-28T07:42:48.381Z,53.30
2019-01-28T07:45:19.045Z,50.87
2019-01-28T07:47:46.799Z,50.30
2019-01-28T07:50:14.664Z,56.97
2019-01-28T07:52:43.410Z,61.07
2019-01-28T07:55:13.295Z,59.43
2019-01-28T07:57:41.337Z,53.80
2019-01-28T08:00:12.845Z,56.37
2019-01-28T08:02:40.535Z,56.87
2019-01-28T08:05:09.280Z,48.37
2019-01-28T08:07:37.244Z,52.90
2019-01-28T08:10:06.566Z,56.17
2019-01-28T08:12:34.210Z,50.70
2019-01-28T08:15:05.961Z,53.50
2019-01-28T08:17:33.680Z,49.77
2019-01-28T08:20:01.437Z,53.37
2019-01-28T08:22:29.289Z,46.10
2019-01-28T08:24:57.058Z,50.73
2019-01-28T08:27:24.823Z,48.20
2019-01-28T08:29:52.514Z,48.60
2019-01-28T08:32:20.103Z,47.50
2019-01-28T08:34:49.485Z,53.33
2019-01-28T08:37:17.399Z,48.83
2019-01-28T08:39:45.158Z,53.07
2019-01-28T08:42:13.294Z,55.73
2019-01-28T08:44:41.053Z,56.57
2019-01-28T08:47:08.646Z,70.80
2019-01-28T08:49:36.317Z,66.77
2019-01-28T08:52:04.031Z,61.73
2019-01-28T08:54:31.681Z,74.37
2019-01-28T08:56:59.301Z,60.70
2019-01-28T08:59:27.008Z,55.73
2019-01-28T09:01:54.733Z,50.93
2019-01-28T09:04:22.336Z,56.03
2019-01-28T09:06:49.984Z,55.37
2019-01-28T09:09:17.598Z,43.87
2019-01-28T09:11:45.176Z,53.17
2019-01-28T09:14:12.824Z,49.20
2019-01-28T09:16:40.395Z,48.10
2019-01-28T09:19:07.948Z,46.97
2019-01-28T09:21:36.634Z,41.90
2019-01-28T09:24:04.325Z,41.37
2019-01-28T09:26:31.916Z,45.83
2019-01-28T09:28:59.728Z,49.10
2019-01-28T09:31:27.383Z,48.37
2019-01-28T09:33:55.120Z,52.20
2019-01-28T09:36:22.842Z,52.70
2019-01-28T09:38:50.426Z,46.83
2019-01-28T09:41:17.985Z,44.60
2019-01-28T09:43:48.439Z,45.47
2019-01-28T09:46:16.048Z,42.40
2019-01-28T09:48:43.625Z,53.63
2019-01-28T09:51:12.365Z,48.03
2019-01-28T09:53:39.964Z,52.43
2019-01-28T09:56:07.513Z,40.07
2019-01-28T09:58:35.250Z,52.37
2019-01-28T10:01:06.651Z,43.77
2019-01-28T10:03:34.372Z,50.50
2019-01-28T10:06:02.387Z,65.20
2019-01-28T10:08:31.934Z,64.50
2019-01-28T10:10:59.582Z,55.60
2019-01-28T10:13:27.149Z,51.03
2019-01-28T10:15:55.212Z,43.20
2019-01-28T10:18:26.264Z,39.43
2019-01-28T10:20:54.000Z,44.87
2019-01-28T10:23:23.510Z,36.43
2019-01-28T10:25:51.785Z,30.80
2019-01-28T10:28:19.496Z,33.00
2019-01-28T10:30:47.690Z,34.80
2019-01-28T10:33:15.250Z,40.87
2019-01-28T10:35:44.146Z,52.97
2019-01-28T10:38:11.853Z,35.33
2019-01-28T10:40:39.988Z,33.93
2019-01-28T10:43:08.270Z,31.83
2019-01-28T10:45:35.939Z,37.03
2019-01-28T10:48:04.263Z,29.83
2019-01-28T10:50:31.912Z,32.63
2019-01-28T10:53:00.510Z,39.70
2019-01-28T10:55:28.231Z,41.00
2019-01-28T10:57:55.814Z,32.80
2019-01-28T11:00:34.946Z,39.70
2019-01-28T11:03:02.862Z,37.40
2019-01-28T11:05:35.463Z,34.93
2019-01-28T11:08:07.277Z,36.93
2019-01-28T11:10:38.105Z,36.57
2019-01-28T11:13:10.029Z,36.67
2019-01-28T11:15:38.801Z,33.30
2019-01-28T11:18:13.694Z,36.83
2019-01-28T11:20:41.544Z,35.73
2019-01-28T11:23:11.954Z,33.73
2019-01-28T11:25:42.182Z,34.23
2019-01-28T11:28:09.950Z,33.17
2019-01-28T11:30:47.526Z,33.43
2019-01-28T11:33:15.268Z,31.77
2019-01-28T11:35:43.229Z,29.40
2019-01-28T11:38:14.416Z,26.47
2019-01-28T11:40:42.118Z,26.77
2019-01-28T11:43:09.797Z,26.40
2019-01-28T11:45:41.807Z,24.10
2019-01-28T11:48:09.568Z,26.43
2019-01-28T11:50:37.246Z,28.23
2019-01-28T11:53:05.099Z,23.47
2019-01-28T11:55:32.782Z,22.23
2019-01-28T11:58:01.279Z,16.90
2019-01-28T12:00:48.469Z,16.33
2019-01-28T12:03:16.211Z,14.30
2019-01-28T12:05:44.225Z,13.90
2019-01-28T12:08:11.908Z,15.13
2019-01-28T12:10:39.548Z,15.50
2019-01-28T12:13:07.330Z,16.20
2019-01-28T12:15:34.972Z,15.43
2019-01-28T12:18:03.750Z,16.17
2019-01-28T12:20:31.389Z,15.13
2019-01-28T12:22:59.051Z,17.50
2019-01-28T12:25:26.728Z,21.60
2019-01-28T12:27:54.463Z,13.13
2019-01-28T12:30:24.636Z,16.60
2019-01-28T12:32:52.621Z,18.80
2019-01-28T12:35:20.386Z,14.63
2019-01-28T12:37:48.038Z,16.10
2019-01-28T12:40:15.906Z,17.87
2019-01-28T12:42:43.587Z,17.60
2019-01-28T12:45:13.548Z,15.43
2019-01-28T12:47:41.296Z,15.53
2019-01-28T12:50:08.948Z,16.77
2019-01-28T12:52:40.070Z,17.20
2019-01-28T12:55:10.488Z,13.43
2019-01-28T12:57:38.463Z,13.80
2019-01-28T13:00:10.449Z,12.87
2019-01-28T13:02:38.178Z,16.13
2019-01-28T13:05:07.924Z,13.63
2019-01-28T13:07:35.778Z,15.93
2019-01-28T13:10:04.980Z,12.67
2019-01-28T13:12:33.548Z,12.77
2019-01-28T13:15:01.333Z,11.90
2019-01-28T13:17:28.941Z,11.10
2019-01-28T13:19:56.641Z,13.23
2019-01-28T13:22:24.196Z,15.07
2019-01-28T13:24:51.789Z,11.50
2019-01-28T13:27:19.357Z,10.23
2019-01-28T13:29:46.969Z,10.10
2019-01-28T13:32:14.558Z,12.27
2019-01-28T13:34:42.167Z,17.43
2019-01-28T13:37:09.772Z,15.33
2019-01-28T13:39:38.083Z,11.67
2019-01-28T13:42:05.755Z,11.83
2019-01-28T13:44:35.243Z,10.93
2019-01-28T13:47:03.066Z,7.93
2019-01-28T13:49:37.984Z,9.97
2019-01-28T13:52:00.166Z,10.33
2019-01-28T13:54:27.816Z,10.27
2019-01-28T13:56:55.461Z,9.53
2019-01-28T13:59:24.910Z,11.43
2019-01-28T14:01:52.635Z,10.30
2019-01-28T14:04:20.273Z,10.33
2019-01-28T14:06:49.487Z,13.07
2019-01-28T14:09:17.183Z,14.70
2019-01-28T14:11:44.875Z,12.87
2019-01-28T14:14:12.617Z,10.30
2019-01-28T14:16:40.354Z,14.57
2019-01-28T14:19:07.944Z,12.70
2019-01-28T14:21:35.623Z,12.07
2019-01-28T14:24:03.617Z,16.70
2019-01-28T14:26:31.355Z,12.57
2019-01-28T14:28:58.990Z,17.50
2019-01-28T14:31:26.619Z,15.60
2019-01-28T14:33:54.211Z,15.90
2019-01-28T14:36:21.832Z,14.17
2019-01-28T14:38:49.570Z,14.20
2019-01-28T14:41:17.228Z,15.00
2019-01-28T14:43:44.896Z,17.80
2019-01-28T14:46:12.477Z,21.07
2019-01-28T14:48:40.095Z,12.53
2019-01-28T14:51:07.731Z,20.43
2019-01-28T14:53:35.327Z,13.17
2019-01-28T14:56:03.095Z,15.53
2019-01-28T14:58:30.698Z,25.73
2019-01-28T15:01:01.333Z,19.60
2019-01-28T15:03:28.983Z,20.47
2019-01-28T15:05:56.651Z,17.93
2019-01-28T15:08:24.451Z,20.23
2019-01-28T15:10:52.073Z,22.33
2019-01-28T15:13:22.263Z,20.13
2019-01-28T15:15:52.544Z,20.00
2019-01-28T15:18:20.118Z,19.47
2019-01-28T15:20:49.580Z,21.93
2019-01-28T15:23:17.293Z,20.60
2019-01-28T15:25:44.992Z,19.07
2019-01-28T15:28:12.546Z,20.43
2019-01-28T15:30:40.236Z,20.13
2019-01-28T15:33:07.974Z,21.00
2019-01-28T15:35:35.771Z,20.17
2019-01-28T15:38:03.961Z,19.87
2019-01-28T15:40:32.977Z,17.30
2019-01-28T15:43:00.619Z,18.37
2019-01-28T15:45:34.640Z,19.37
2019-01-28T15:48:02.696Z,21.37
2019-01-28T15:50:30.868Z,26.33
2019-01-28T15:52:59.104Z,33.47
2019-01-28T15:55:32.283Z,24.90
2019-01-28T15:58:00.190Z,22.57
2019-01-28T16:00:29.307Z,23.13
2019-01-28T16:02:57.376Z,22.87
2019-01-28T16:05:25.976Z,22.53
2019-01-28T16:07:53.716Z,21.27
2019-01-28T16:10:21.396Z,22.17
2019-01-28T16:12:48.987Z,21.13
2019-01-28T16:15:25.282Z,21.00
2019-01-28T16:17:53.956Z,21.83
2019-01-28T16:20:21.720Z,22.73
2019-01-28T16:22:49.561Z,20.30
2019-01-28T16:25:17.303Z,21.53
2019-01-28T16:27:45.042Z,20.63
2019-01-28T16:30:16.200Z,20.83
2019-01-28T16:32:45.588Z,18.97
2019-01-28T16:35:14.469Z,19.07
2019-01-28T16:37:42.680Z,20.10
2019-01-28T16:40:12.569Z,21.37
2019-01-28T16:42:40.950Z,20.53
2019-01-28T16:45:09.978Z,20.37
2019-01-28T16:47:38.178Z,19.77
2019-01-28T16:50:07.518Z,21.33
2019-01-28T16:52:35.684Z,20.13
2019-01-28T16:55:04.176Z,22.50
2019-01-28T16:57:33.106Z,21.50
2019-01-28T17:00:01.406Z,21.83
2019-01-28T17:02:29.472Z,20.83
2019-01-28T17:04:58.103Z,19.63
2019-01-28T17:07:25.905Z,23.47
2019-01-28T17:09:54.575Z,23.43
2019-01-28T17:12:22.486Z,23.00
2019-01-28T17:14:50.782Z,23.10
2019-01-28T17:17:18.744Z,26.17
2019-01-28T17:19:46.646Z,24.53
2019-01-28T17:22:14.653Z,23.33
2019-01-28T17:24:42.699Z,24.03
2019-01-28T17:27:10.628Z,24.20
2019-01-28T17:29:39.194Z,25.10
2019-01-28T17:32:10.239Z,25.13
2019-01-28T17:34:38.255Z,29.47
2019-01-28T17:37:06.154Z,26.57
2019-01-28T17:39:34.203Z,28.73
2019-01-28T17:42:02.340Z,30.70
2019-01-28T17:44:32.157Z,32.47
2019-01-28T17:47:00.267Z,31.77
2019-01-28T17:49:29.327Z,31.10
2019-01-28T17:51:57.170Z,32.23
2019-01-28T17:54:25.215Z,34.90
2019-01-28T17:56:53.409Z,32.83
2019-01-28T17:59:21.396Z,35.53
2019-01-28T18:01:49.394Z,34.57
2019-01-28T18:04:17.381Z,33.80
2019-01-28T18:06:45.121Z,34.53
2019-01-28T18:09:13.069Z,35.00
2019-01-28T18:11:40.783Z,34.83
2019-01-28T18:14:09.243Z,36.50
2019-01-28T18:16:36.946Z,37.47
2019-01-28T18:19:04.754Z,38.97
2019-01-28T18:21:35.013Z,37.77
2019-01-28T18:24:03.128Z,34.93
2019-01-28T18:26:31.924Z,34.57
2019-01-28T18:28:59.914Z,33.50
2019-01-28T18:31:27.679Z,43.00
2019-01-28T18:33:55.700Z,37.87
2019-01-28T18:36:23.786Z,37.53
2019-01-28T18:38:51.872Z,38.00
2019-01-28T18:41:20.129Z,37.63
2019-01-28T18:43:47.989Z,39.07
2019-01-28T18:46:16.069Z,40.73
2019-01-28T18:48:44.314Z,41.83
2019-01-28T18:51:12.582Z,40.97
2019-01-28T18:53:40.795Z,50.27
2019-01-28T18:56:08.803Z,43.50
2019-01-28T18:58:36.887Z,44.23
2019-01-28T19:01:05.321Z,44.83
2019-01-28T19:03:33.376Z,49.53
2019-01-28T19:06:06.049Z,46.73
2019-01-28T19:08:47.107Z,43.93
2019-01-28T19:11:36.168Z,43.97
2019-01-28T19:14:25.585Z,41.87
2019-01-28T19:17:04.775Z,40.73
2019-01-28T19:19:51.254Z,35.93
2019-01-28T19:22:24.166Z,38.17
2019-01-28T19:24:52.028Z,39.50
2019-01-28T19:27:19.691Z,41.63
2019-01-28T19:29:47.560Z,41.67
2019-01-28T19:32:16.686Z,40.77
2019-01-28T19:34:44.810Z,41.13
2019-01-28T19:37:12.728Z,40.67
2019-01-28T19:39:41.084Z,43.87
2019-01-28T19:42:09.207Z,42.20
2019-01-28T19:44:37.256Z,44.87
2019-01-28T19:47:05.183Z,44.67
2019-01-28T19:49:33.134Z,44.37
2019-01-28T19:52:01.226Z,52.00
2019-01-28T19:54:30.308Z,50.97
2019-01-28T19:56:58.238Z,49.87
2019-01-28T19:59:26.511Z,47.03
2019-01-28T20:01:55.606Z,41.90
2019-01-28T20:04:24.734Z,44.13
2019-01-28T20:06:52.958Z,45.73
2019-01-28T20:09:21.024Z,49.80
2019-01-28T20:11:49.023Z,48.67
2019-01-28T20:14:17.307Z,48.97
2019-01-28T20:16:45.539Z,48.47
2019-01-28T20:19:13.527Z,44.47
2019-01-28T20:21:42.513Z,45.67
2019-01-28T20:24:10.589Z,45.70
2019-01-28T20:26:39.727Z,48.33
2019-01-28T20:29:08.105Z,53.70
2019-01-28T20:31:36.140Z,53.70
2019-01-28T20:34:04.955Z,54.83
2019-01-28T20:36:32.952Z,47.87
2019-01-28T20:39:01.033Z,52.70
2019-01-28T20:41:30.894Z,59.50
2019-01-28T20:43:58.818Z,49.93
2019-01-28T20:46:27.134Z,50.40
2019-01-28T20:48:55.310Z,47.13
2019-01-28T20:51:23.188Z,49.30
2019-01-28T20:53:51.507Z,45.33
2019-01-28T20:56:19.522Z,44.73
2019-01-28T20:58:47.757Z,47.97
2019-01-28T21:01:15.753Z,45.03
2019-01-28T21:03:44.863Z,47.93
2019-01-28T21:06:12.826Z,45.03
2019-01-28T21:08:40.727Z,53.23
2019-01-28T21:11:08.737Z,48.53
2019-01-28T21:13:36.896Z,51.97
2019-01-28T21:16:04.973Z,49.73
2019-01-28T21:18:32.946Z,44.60
2019-01-28T21:21:01.075Z,42.30
2019-01-28T21:23:29.216Z,46.33
2019-01-28T21:25:57.593Z,46.07
2019-01-28T21:28:25.640Z,47.37
2019-01-28T21:30:53.731Z,47.50
2019-01-28T21:33:21.752Z,49.33
2019-01-28T21:36:07.914Z,46.53
2019-01-28T21:38:44.559Z,46.87
2019-01-28T21:41:12.883Z,47.30
2019-01-28T21:43:40.820Z,44.20
2019-01-28T21:46:09.170Z,45.77
2019-01-28T21:48:37.134Z,46.03
2019-01-28T21:51:05.170Z,43.57
2019-01-28T21:53:34.219Z,52.20
2019-01-28T21:56:02.194Z,52.27
2019-01-28T21:58:30.188Z,47.97
2019-01-28T22:00:58.741Z,50.03
2019-01-28T22:03:27.033Z,46.63
2019-01-28T22:05:55.065Z,46.20
2019-01-28T22:08:23.135Z,46.57
2019-01-28T22:10:51.202Z,51.53
2019-01-28T22:13:19.537Z,45.97
2019-01-28T22:15:47.438Z,47.60
2019-01-28T22:18:15.583Z,48.13
2019-01-28T22:20:43.629Z,46.27
2019-01-28T22:23:11.852Z,50.47
2019-01-28T22:25:40.129Z,46.00
2019-01-28T22:28:08.349Z,51.13
2019-01-28T22:30:36.359Z,49.33
2019-01-28T22:33:04.575Z,51.27
2019-01-28T22:35:32.763Z,54.67
2019-01-28T22:38:00.684Z,52.73
2019-01-28T22:40:28.659Z,49.47
2019-01-28T22:42:56.813Z,49.50
2019-01-28T22:45:24.826Z,48.87
2019-01-28T22:47:52.935Z,48.40
2019-01-28T22:50:20.876Z,48.97
2019-01-28T22:52:49.292Z,44.00
2019-01-28T22:55:19.040Z,43.53
2019-01-28T22:57:47.094Z,46.47
2019-01-28T23:00:46.544Z,44.40
2019-01-28T23:03:14.811Z,45.67
2019-01-28T23:05:42.721Z,41.77
2019-01-28T23:08:11.023Z,45.07
2019-01-28T23:10:38.895Z,46.53
2019-01-28T23:13:06.850Z,42.80
2019-01-28T23:15:35.089Z,45.00
2019-01-28T23:18:03.160Z,43.87
2019-01-28T23:20:31.096Z,45.73
2019-01-28T23:22:59.143Z,42.83
2019-01-28T23:25:27.146Z,42.63
2019-01-28T23:27:55.191Z,46.77
2019-01-28T23:30:23.511Z,48.83
2019-01-28T23:32:52.743Z,53.23
2019-01-28T23:35:20.693Z,50.57
2019-01-28T23:37:48.918Z,51.10
2019-01-28T23:40:16.961Z,50.47
2019-01-28T23:42:46.739Z,50.83
2019-01-28T23:45:14.772Z,51.10
2019-01-28T23:47:43.067Z,45.93
2019-01-28T23:50:11.013Z,48.37
2019-01-28T23:52:39.192Z,45.87
2019-01-28T23:55:07.262Z,44.67
2019-01-28T23:57:35.246Z,46.30
